Time;durP1;ratioP1;P1;durP2;ratioP2;P2;SDS_P1;SDS_P2;PMS_P1;PMS_P2;Temp;Humidity;BMP_temperature;BMP_pressure;BME280_temperature;BME280_humidity;BME280_pressure;Samples;Min_cycle;Max_cycle;Signal;HPM_P1;HPM_P2
2022/01/02 00:22:19;;;;;;;9.18;8.27;;;7.10;99.90;;;;;;1629759;22;20229;-83
2022/01/02 00:24:46;;;;;;;9.20;8.30;;;7.10;99.90;;;;;;5090253;28;20238;-83
2022/01/02 00:27:15;;;;;;;6.72;6.22;;;7.00;99.90;;;;;;5082067;28;20212;-83
2022/01/02 00:29:43;;;;;;;8.13;7.43;;;7.10;99.90;;;;;;5080000;28;20201;-82
2022/01/02 00:32:12;;;;;;;7.45;6.80;;;7.10;99.90;;;;;;5086929;28;20213;-86
2022/01/02 00:34:39;;;;;;;7.20;6.53;;;7.10;99.90;;;;;;5092988;28;20193;-83
2022/01/02 00:37:08;;;;;;;9.38;7.35;;;7.10;99.90;;;;;;5092960;28;20203;-85
2022/01/02 00:39:37;;;;;;;8.02;6.00;;;7.10;99.90;;;;;;5092863;28;20204;-82
2022/01/02 00:42:08;;;;;;;6.15;4.95;;;7.10;99.90;;;;;;5092668;28;20599;-83
2022/01/02 00:44:46;;;;;;;6.18;5.57;;;7.20;99.90;;;;;;5080901;28;20271;-82
2022/01/02 00:47:19;;;;;;;7.03;5.38;;;7.20;99.90;;;;;;5072761;28;20205;-83
2022/01/02 00:49:57;;;;;;;6.75;6.15;;;7.20;99.90;;;;;;5073019;28;20216;-84
2022/01/02 00:52:26;;;;;;;7.38;5.95;;;7.30;99.90;;;;;;5072631;28;20228;-84
2022/01/02 00:54:56;;;;;;;6.68;5.97;;;7.30;99.90;;;;;;5074863;28;20197;-84
2022/01/02 00:57:30;;;;;;;6.18;5.50;;;7.30;99.90;;;;;;5074473;28;20213;-84
2022/01/02 01:00:09;;;;;;;6.03;5.32;;;7.30;99.90;;;;;;5074822;28;20223;-85
2022/01/02 01:02:45;;;;;;;5.70;5.30;;;7.30;99.90;;;;;;5075010;28;20229;-84
2022/01/02 01:05:14;;;;;;;5.97;5.43;;;7.30;99.90;;;;;;5075111;28;20261;-85
2022/01/02 01:07:43;;;;;;;7.05;5.38;;;7.30;99.90;;;;;;5077535;28;20306;-84
2022/01/02 01:10:12;;;;;;;6.75;5.22;;;7.30;99.90;;;;;;5084564;28;20185;-84
2022/01/02 01:12:39;;;;;;;8.57;5.55;;;7.20;99.90;;;;;;5096005;28;20285;-84
2022/01/02 01:15:07;;;;;;;7.55;6.78;;;7.20;99.90;;;;;;5093926;28;20577;-84
2022/01/02 01:17:37;;;;;;;11.43;10.40;;;7.20;99.90;;;;;;5080546;28;20209;-84
2022/01/02 01:20:05;;;;;;;14.27;12.88;;;7.20;99.90;;;;;;5080363;28;20211;-84
2022/01/02 01:22:32;;;;;;;10.85;9.43;;;7.10;99.90;;;;;;5090921;28;20221;-84
2022/01/02 01:24:59;;;;;;;9.88;8.60;;;7.10;99.90;;;;;;5095578;28;20213;-84
2022/01/02 01:27:27;;;;;;;8.32;7.57;;;7.10;99.90;;;;;;5087455;28;20201;-84
2022/01/02 01:29:56;;;;;;;8.32;7.63;;;7.00;99.90;;;;;;5078437;28;20208;-84
2022/01/02 01:32:22;;;;;;;8.98;8.07;;;6.90;99.90;;;;;;5079013;28;20248;-84
2022/01/02 01:34:49;;;;;;;8.88;8.07;;;6.90;99.90;;;;;;5095230;28;20203;-84
2022/01/02 01:37:16;;;;;;;9.27;8.38;;;6.90;99.90;;;;;;5095210;28;20208;-84
2022/01/02 01:39:43;;;;;;;7.88;7.28;;;6.90;99.90;;;;;;5101076;28;20209;-84
2022/01/02 01:42:11;;;;;;;9.15;7.78;;;6.80;99.90;;;;;;5099671;28;20228;-84
2022/01/02 01:47:23;;;;;;;10.13;9.23;;;6.70;99.90;;;;;;5070821;28;20205;-84
2022/01/02 01:49:50;;;;;;;9.90;9.00;;;6.70;99.90;;;;;;5082232;28;20295;-84
2022/01/02 01:52:17;;;;;;;11.02;9.90;;;6.60;99.90;;;;;;5082491;28;20244;-83
2022/01/02 01:54:44;;;;;;;9.20;7.35;;;6.50;99.90;;;;;;5081910;28;20201;-84
2022/01/02 01:57:11;;;;;;;8.00;7.30;;;6.40;99.90;;;;;;5082032;28;20201;-84
2022/01/02 01:59:37;;;;;;;7.88;6.25;;;6.40;99.90;;;;;;5081079;28;20209;-84
2022/01/02 02:02:06;;;;;;;7.53;6.63;;;6.40;99.90;;;;;;5080833;28;20612;-84
2022/01/02 02:04:33;;;;;;;6.72;6.03;;;6.30;99.90;;;;;;5080613;28;20221;-84
2022/01/02 02:07:00;;;;;;;9.00;8.35;;;6.30;99.90;;;;;;5076432;28;20259;-85
2022/01/02 02:09:34;;;;;;;8.15;7.35;;;6.30;99.90;;;;;;5076809;28;20205;-84
2022/01/02 02:12:01;;;;;;;10.05;9.05;;;6.30;99.90;;;;;;5076844;28;20221;-84
2022/01/02 02:14:28;;;;;;;9.00;8.20;;;6.30;99.90;;;;;;5076931;28;20212;-85
2022/01/02 02:16:55;;;;;;;11.25;10.20;;;6.30;99.90;;;;;;5077864;28;20217;-85
2022/01/02 02:19:23;;;;;;;12.50;11.32;;;6.30;99.90;;;;;;5077507;28;20201;-84
2022/01/02 02:21:51;;;;;;;15.95;14.20;;;6.30;99.90;;;;;;5077213;28;20232;-85
2022/01/02 02:24:28;;;;;;;16.92;15.23;;;6.20;99.90;;;;;;5077492;28;20232;-85
2022/01/02 02:26:55;;;;;;;13.55;12.23;;;6.20;99.90;;;;;;5076390;28;20224;-85
2022/01/02 02:29:22;;;;;;;14.40;13.00;;;6.20;99.90;;;;;;5077730;28;20205;-85
2022/01/02 02:31:50;;;;;;;13.75;11.65;;;6.10;99.90;;;;;;5076825;28;20654;-85
2022/01/02 02:34:18;;;;;;;12.00;10.48;;;6.10;99.90;;;;;;5074433;28;20672;-84
2022/01/02 02:36:48;;;;;;;14.85;13.38;;;6.20;99.90;;;;;;5076193;28;20201;-85
2022/01/02 02:39:16;;;;;;;14.10;12.60;;;6.20;99.90;;;;;;5076844;28;20211;-85
2022/01/02 02:41:44;;;;;;;10.02;9.13;;;6.10;99.90;;;;;;5076503;28;20228;-85
2022/01/02 02:44:20;;;;;;;10.63;9.52;;;6.00;99.90;;;;;;5076135;28;20231;-85
2022/01/02 02:49:30;;;;;;;14.75;9.55;;;5.90;99.90;;;;;;5081245;28;20199;-84
2022/01/02 02:52:02;;;;;;;13.90;10.48;;;5.90;99.90;;;;;;5081270;28;20238;-84
2022/01/02 02:54:32;;;;;;;13.50;10.50;;;5.80;99.90;;;;;;5081353;28;20197;-84
2022/01/02 02:57:00;;;;;;;10.57;9.32;;;5.70;99.90;;;;;;5080890;28;20197;-84
2022/01/02 02:59:28;;;;;;;11.88;10.07;;;5.70;99.90;;;;;;5081562;28;20273;-84
2022/01/02 03:01:55;;;;;;;17.58;12.60;;;5.60;99.90;;;;;;5080942;28;20220;-84
2022/01/02 03:04:23;;;;;;;15.25;10.85;;;5.60;99.90;;;;;;5081242;28;20220;-84
2022/01/02 03:06:50;;;;;;;11.60;10.45;;;5.60;99.90;;;;;;5084305;28;20204;-84
2022/01/02 03:09:28;;;;;;;12.15;10.57;;;5.50;99.90;;;;;;5084165;28;20201;-84
2022/01/02 03:11:56;;;;;;;12.38;10.75;;;5.50;99.90;;;;;;5080646;28;20221;-84
2022/01/02 03:14:23;;;;;;;12.57;10.55;;;5.50;99.90;;;;;;5080955;28;20207;-84
2022/01/02 03:16:50;;;;;;;11.43;9.02;;;5.50;99.90;;;;;;5080113;28;20208;-84
2022/01/02 03:19:17;;;;;;;11.00;10.00;;;5.40;99.90;;;;;;5081569;28;20201;-84
2022/01/02 03:21:43;;;;;;;9.70;8.70;;;5.40;99.90;;;;;;5080369;28;20221;-84
2022/01/02 03:24:10;;;;;;;10.15;9.23;;;5.40;99.90;;;;;;5081529;28;20247;-83
2022/01/02 03:26:37;;;;;;;10.27;9.25;;;5.40;99.90;;;;;;5081901;28;20571;-84
2022/01/02 03:29:05;;;;;;;12.15;9.00;;;5.40;99.90;;;;;;5080784;28;20215;-84
2022/01/02 03:31:31;;;;;;;9.13;8.23;;;5.40;99.90;;;;;;5079938;28;20216;-84
2022/01/02 03:33:58;;;;;;;9.48;8.13;;;5.40;99.90;;;;;;5078963;28;20201;-84
2022/01/02 03:36:25;;;;;;;10.07;9.07;;;5.40;99.90;;;;;;5078635;28;20236;-84
2022/01/02 03:38:52;;;;;;;9.48;8.30;;;5.50;99.90;;;;;;5088839;28;20294;-83
2022/01/02 03:41:19;;;;;;;9.65;8.63;;;5.50;99.90;;;;;;5092904;28;20253;-84
2022/01/02 03:43:45;;;;;;;8.90;8.05;;;5.50;99.90;;;;;;5086666;28;20544;-84
2022/01/02 03:46:14;;;;;;;9.45;8.50;;;5.50;99.90;;;;;;5078740;28;20201;-84
2022/01/02 03:48:41;;;;;;;10.13;8.35;;;5.50;99.90;;;;;;5077574;28;20393;-84
2022/01/02 03:51:08;;;;;;;9.45;8.55;;;5.50;99.90;;;;;;5078086;28;20200;-84
2022/01/02 03:53:35;;;;;;;7.95;7.32;;;5.50;99.90;;;;;;5078320;28;20322;-84
2022/01/02 03:56:04;;;;;;;9.75;8.82;;;5.40;99.90;;;;;;5077201;28;20224;-84
2022/01/02 03:58:30;;;;;;;8.77;7.68;;;5.40;99.90;;;;;;5078549;28;20205;-84
2022/01/02 04:00:57;;;;;;;10.55;8.07;;;5.40;99.90;;;;;;5078330;28;20201;-84
2022/01/02 04:03:25;;;;;;;8.50;7.70;;;5.40;99.90;;;;;;5079237;28;20240;-84
2022/01/02 04:05:58;;;;;;;8.13;7.32;;;5.40;99.90;;;;;;5080405;28;20254;-84
2022/01/02 04:08:24;;;;;;;7.75;7.05;;;5.50;99.90;;;;;;5080299;28;20215;-84
2022/01/02 04:10:51;;;;;;;7.13;6.45;;;5.40;99.90;;;;;;5079850;28;20201;-84
2022/01/02 04:13:18;;;;;;;8.98;8.10;;;5.40;99.90;;;;;;5081232;28;20225;-84
2022/01/02 04:15:45;;;;;;;6.93;6.22;;;5.40;99.90;;;;;;5081065;28;20200;-84
2022/01/02 04:18:12;;;;;;;8.10;6.65;;;5.40;99.90;;;;;;5080365;28;20678;-84
2022/01/02 04:20:40;;;;;;;10.35;9.35;;;5.30;99.90;;;;;;5081006;28;20205;-84
2022/01/02 04:23:07;;;;;;;7.13;6.50;;;5.30;99.90;;;;;;5080530;28;20228;-84
2022/01/02 04:25:33;;;;;;;6.80;5.93;;;5.30;99.90;;;;;;5058905;28;20233;-84
2022/01/02 04:28:00;;;;;;;7.63;6.93;;;5.30;99.90;;;;;;5059358;28;20209;-84
2022/01/02 04:30:27;;;;;;;8.90;7.00;;;5.30;99.90;;;;;;5077712;28;20441;-84
2022/01/02 04:32:53;;;;;;;6.68;6.15;;;5.40;99.90;;;;;;5080089;28;20368;-84
2022/01/02 04:35:20;;;;;;;7.47;6.82;;;5.40;99.90;;;;;;5080182;28;20197;-84
2022/01/02 04:37:48;;;;;;;8.45;6.93;;;5.50;99.90;;;;;;5080432;28;20208;-84
2022/01/02 04:40:15;;;;;;;6.20;5.60;;;5.60;99.90;;;;;;5080325;28;20277;-84
2022/01/02 04:42:42;;;;;;;7.07;6.38;;;5.60;99.90;;;;;;5079848;28;20283;-84
2022/01/02 04:45:09;;;;;;;6.60;6.00;;;5.70;99.90;;;;;;5079389;28;20720;-84
2022/01/02 04:47:36;;;;;;;7.68;6.70;;;5.80;99.90;;;;;;5079676;28;20208;-84
2022/01/02 04:50:05;;;;;;;7.00;6.30;;;5.80;99.90;;;;;;5079068;28;20564;-84
2022/01/02 04:52:32;;;;;;;8.13;6.85;;;5.90;99.90;;;;;;5079720;28;20235;-84
2022/01/02 04:55:00;;;;;;;7.85;7.03;;;5.90;99.90;;;;;;5079273;28;20260;-84
2022/01/02 04:57:27;;;;;;;8.27;6.35;;;5.90;99.90;;;;;;5079871;28;20621;-84
2022/01/02 04:59:57;;;;;;;5.97;5.47;;;6.00;99.90;;;;;;5079272;28;20201;-84
2022/01/02 05:02:23;;;;;;;8.18;6.55;;;5.90;99.90;;;;;;5079407;28;20228;-84
2022/01/02 05:04:50;;;;;;;8.15;7.07;;;5.90;99.90;;;;;;5079606;28;20544;-84
2022/01/02 05:07:18;;;;;;;5.88;5.38;;;6.00;99.90;;;;;;5078159;28;20215;-84
2022/01/02 05:09:44;;;;;;;6.40;5.75;;;6.00;99.90;;;;;;5072288;28;20213;-84
2022/01/02 05:12:14;;;;;;;7.10;6.50;;;6.00;99.90;;;;;;5075819;28;20604;-84
2022/01/02 05:14:41;;;;;;;7.75;7.03;;;6.00;99.90;;;;;;5075430;28;20197;-84
2022/01/02 05:17:08;;;;;;;6.65;6.05;;;5.90;99.90;;;;;;5075381;28;20751;-84
2022/01/02 05:19:35;;;;;;;7.93;7.15;;;5.80;99.90;;;;;;5075764;28;20548;-83
2022/01/02 05:22:01;;;;;;;8.00;7.35;;;5.70;99.90;;;;;;5075045;28;20724;-84
2022/01/02 05:24:31;;;;;;;8.32;7.57;;;5.70;99.90;;;;;;5078206;28;20210;-84
2022/01/02 05:26:58;;;;;;;8.23;7.43;;;5.60;99.90;;;;;;5079487;28;20666;-83
2022/01/02 05:29:26;;;;;;;10.75;9.75;;;5.50;99.90;;;;;;5079178;28;20205;-83
2022/01/02 05:31:53;;;;;;;8.77;8.00;;;5.40;99.90;;;;;;5079156;28;20224;-83
2022/01/02 05:34:20;;;;;;;8.55;7.60;;;5.40;99.90;;;;;;5078758;28;20666;-83
2022/01/02 05:36:49;;;;;;;9.45;7.97;;;5.30;99.90;;;;;;5079432;28;20667;-83
2022/01/02 05:39:17;;;;;;;8.00;7.20;;;5.30;99.90;;;;;;5089775;28;20257;-83
2022/01/02 05:41:45;;;;;;;10.30;9.43;;;5.30;99.90;;;;;;5099600;28;20220;-83
2022/01/02 05:44:11;;;;;;;8.88;8.00;;;5.20;99.90;;;;;;5098965;28;20211;-83
2022/01/02 05:46:40;;;;;;;10.10;9.10;;;5.20;99.90;;;;;;5095019;28;20204;-83
2022/01/02 05:49:07;;;;;;;10.13;9.20;;;5.20;99.90;;;;;;5078620;28;20726;-83
2022/01/02 05:51:34;;;;;;;9.73;8.80;;;5.20;99.90;;;;;;5078596;28;20237;-83
2022/01/02 05:54:01;;;;;;;9.07;8.35;;;5.20;99.90;;;;;;5087301;28;20212;-82
2022/01/02 05:56:28;;;;;;;11.30;10.15;;;5.10;99.90;;;;;;5095771;28;20243;-82
2022/01/02 05:58:55;;;;;;;9.73;8.82;;;5.10;99.90;;;;;;5090839;28;20205;-83
2022/01/02 06:01:25;;;;;;;9.13;8.32;;;5.10;99.90;;;;;;5080347;28;20207;-83
2022/01/02 06:03:53;;;;;;;8.80;8.05;;;5.10;99.90;;;;;;5080280;28;20205;-83
2022/01/02 06:06:20;;;;;;;9.25;8.45;;;5.10;99.90;;;;;;5093416;28;20225;-82
2022/01/02 06:08:47;;;;;;;9.85;8.95;;;5.10;99.90;;;;;;5096263;28;20209;-83
2022/01/02 06:11:16;;;;;;;8.45;7.50;;;5.20;99.90;;;;;;5084709;28;20197;-84
2022/01/02 06:13:44;;;;;;;9.00;8.10;;;5.20;99.90;;;;;;5080363;28;20235;-83
2022/01/02 06:16:12;;;;;;;10.00;8.60;;;5.20;99.90;;;;;;5081795;28;20213;-82
2022/01/02 06:18:38;;;;;;;8.50;7.75;;;5.20;99.90;;;;;;5095352;28;20340;-84
2022/01/02 06:21:07;;;;;;;8.55;7.85;;;5.30;99.90;;;;;;5094992;28;20207;-83
2022/01/02 06:23:33;;;;;;;10.00;8.45;;;5.30;99.90;;;;;;5095530;28;20580;-83
2022/01/02 06:26:00;;;;;;;8.60;7.60;;;5.40;99.90;;;;;;5095082;28;20224;-83
2022/01/02 06:28:27;;;;;;;9.02;8.32;;;5.40;99.90;;;;;;5085581;28;20216;-83
2022/01/02 06:30:53;;;;;;;8.73;7.32;;;5.50;99.90;;;;;;5081515;28;20209;-84
2022/01/02 06:33:20;;;;;;;5.05;4.63;;;5.50;99.90;;;;;;5081839;28;20234;-83
2022/01/02 06:35:49;;;;;;;7.60;6.90;;;5.50;99.90;;;;;;5081850;28;20212;-83
2022/01/02 06:38:20;;;;;;;7.53;6.47;;;5.60;99.90;;;;;;5082116;28;20275;-83
2022/01/02 06:40:47;;;;;;;6.28;5.78;;;5.70;99.90;;;;;;5080962;28;20219;-83
2022/01/02 06:43:15;;;;;;;6.60;6.10;;;5.80;99.90;;;;;;5081280;28;20243;-83
2022/01/02 06:45:42;;;;;;;7.72;7.00;;;5.90;99.90;;;;;;5080061;28;20694;-83
2022/01/02 06:48:09;;;;;;;5.85;5.35;;;6.00;99.90;;;;;;5081243;28;20216;-83
2022/01/02 06:50:36;;;;;;;6.95;6.45;;;6.10;99.90;;;;;;5081479;28;20208;-83
2022/01/02 06:53:03;;;;;;;7.30;6.53;;;6.20;99.90;;;;;;5085401;28;20225;-84
2022/01/02 06:55:31;;;;;;;5.03;4.63;;;6.40;99.90;;;;;;5086186;28;20201;-83
2022/01/02 06:57:58;;;;;;;4.50;4.10;;;6.40;99.90;;;;;;5081062;28;20212;-83
2022/01/02 07:00:25;;;;;;;3.92;3.70;;;6.50;99.90;;;;;;5080669;28;20252;-84
2022/01/02 07:02:52;;;;;;;3.92;3.63;;;6.60;99.90;;;;;;5079807;28;20724;-83
2022/01/02 07:05:19;;;;;;;4.50;4.10;;;6.80;99.90;;;;;;5079489;28;20224;-84
2022/01/02 07:07:47;;;;;;;3.63;3.33;;;6.90;99.90;;;;;;5079918;28;20284;-83
2022/01/02 07:10:17;;;;;;;3.10;2.90;;;7.00;99.90;;;;;;5079131;28;20687;-83
2022/01/02 07:12:45;;;;;;;3.58;3.28;;;7.10;99.90;;;;;;5079966;28;20566;-84
2022/01/02 07:15:12;;;;;;;2.83;2.60;;;7.20;99.90;;;;;;5078607;28;20197;-83
2022/01/02 07:17:39;;;;;;;2.95;2.65;;;7.40;99.90;;;;;;5077384;28;20258;-83
2022/01/02 07:20:07;;;;;;;2.17;1.98;;;7.50;99.90;;;;;;5078124;28;20205;-83
2022/01/02 07:22:34;;;;;;;4.18;2.95;;;7.60;99.90;;;;;;5078284;28;20236;-83
2022/01/02 07:25:01;;;;;;;3.15;2.95;;;7.80;99.90;;;;;;5079198;28;20567;-83
2022/01/02 07:27:28;;;;;;;2.83;2.63;;;8.00;99.90;;;;;;5078824;28;20212;-84
2022/01/02 07:29:56;;;;;;;2.60;2.40;;;8.10;99.90;;;;;;5079235;28;20576;-83
2022/01/02 07:32:24;;;;;;;2.55;2.35;;;8.30;99.90;;;;;;5078978;28;20240;-83
2022/01/02 07:34:51;;;;;;;3.10;2.75;;;8.40;99.90;;;;;;5068883;28;20209;-83
2022/01/02 07:37:18;;;;;;;3.88;3.15;;;8.50;99.90;;;;;;5077565;28;20201;-84
2022/01/02 07:39:45;;;;;;;3.72;3.53;;;8.60;99.90;;;;;;5077479;28;20205;-83
2022/01/02 07:42:11;;;;;;;4.57;4.15;;;8.60;99.90;;;;;;5077092;28;20304;-84
2022/01/02 07:44:38;;;;;;;4.07;3.67;;;8.60;99.90;;;;;;5077428;28;20209;-83
2022/01/02 07:47:07;;;;;;;4.13;3.15;;;8.50;99.90;;;;;;5076901;28;20229;-84
2022/01/02 07:49:34;;;;;;;4.10;3.80;;;8.50;99.90;;;;;;5078411;28;20211;-83
2022/01/02 07:52:01;;;;;;;5.22;4.75;;;8.40;99.90;;;;;;5078804;28;20694;-83
2022/01/02 07:54:28;;;;;;;7.20;4.43;;;8.30;99.90;;;;;;5079240;28;20205;-83
2022/01/02 07:56:55;;;;;;;4.00;3.70;;;8.20;99.90;;;;;;5079049;28;20200;-83
2022/01/02 07:59:22;;;;;;;5.43;4.38;;;8.10;99.90;;;;;;5079378;28;20205;-83
2022/01/02 08:01:48;;;;;;;5.18;4.60;;;8.00;99.90;;;;;;5078028;28;20225;-83
2022/01/02 08:04:18;;;;;;;5.93;4.57;;;8.00;99.90;;;;;;5079313;28;20216;-83
2022/01/02 08:06:45;;;;;;;5.60;4.80;;;7.90;99.90;;;;;;5078812;28;20224;-84
2022/01/02 08:09:11;;;;;;;4.22;3.63;;;7.90;99.90;;;;;;5078480;28;20205;-83
2022/01/02 08:11:38;;;;;;;4.78;4.28;;;7.90;99.90;;;;;;5075742;28;20229;-83
2022/01/02 08:14:06;;;;;;;5.93;5.43;;;7.90;99.90;;;;;;5076719;28;20203;-84
2022/01/02 08:16:33;;;;;;;5.15;4.75;;;7.90;99.90;;;;;;5075688;28;20201;-84
2022/01/02 08:19:00;;;;;;;6.80;5.65;;;7.80;99.90;;;;;;5076481;28;20209;-84
2022/01/02 08:21:28;;;;;;;7.22;5.00;;;7.80;99.90;;;;;;5078847;28;20694;-84
2022/01/02 08:23:55;;;;;;;6.88;6.25;;;7.80;99.90;;;;;;5075001;28;20205;-83
2022/01/02 08:26:23;;;;;;;6.72;6.22;;;7.80;99.90;;;;;;5075415;28;20229;-84
2022/01/02 08:28:50;;;;;;;6.13;5.63;;;7.90;99.90;;;;;;5075655;28;20276;-84
2022/01/02 08:31:35;;;;;;;5.28;4.80;;;8.00;99.90;;;;;;5076189;28;20216;-83
2022/01/02 08:34:02;;;;;;;3.92;3.63;;;8.10;99.90;;;;;;5075097;28;20220;-83
2022/01/02 08:36:30;;;;;;;5.03;4.63;;;8.20;99.90;;;;;;5078764;28;20216;-83
2022/01/02 08:38:57;;;;;;;4.05;3.67;;;8.40;99.90;;;;;;5081176;28;20209;-83
2022/01/02 08:41:24;;;;;;;4.88;4.10;;;8.50;99.90;;;;;;5077828;28;20259;-83
2022/01/02 08:43:51;;;;;;;3.65;3.35;;;8.70;99.90;;;;;;5075468;28;20204;-83
2022/01/02 08:46:18;;;;;;;4.30;3.88;;;8.90;99.90;;;;;;5075171;28;20577;-83
2022/01/02 08:48:44;;;;;;;3.15;2.95;;;9.10;99.90;;;;;;5075317;28;20208;-83
2022/01/02 08:51:12;;;;;;;4.07;3.17;;;9.30;99.90;;;;;;5076104;28;20212;-84
2022/01/02 08:53:40;;;;;;;3.47;3.20;;;9.40;99.90;;;;;;5078185;28;20273;-84
2022/01/02 08:56:07;;;;;;;2.90;2.70;;;9.60;99.90;;;;;;5077412;28;20284;-84
2022/01/02 08:58:34;;;;;;;3.75;3.45;;;9.80;99.90;;;;;;5081212;28;20559;-84
2022/01/02 09:01:01;;;;;;;3.50;3.20;;;10.00;99.90;;;;;;5082201;28;20211;-84
2022/01/02 09:03:29;;;;;;;4.77;3.40;;;10.20;99.90;;;;;;5081223;28;20224;-84
2022/01/02 09:05:56;;;;;;;2.75;2.45;;;10.30;99.90;;;;;;5081089;28;20540;-84
2022/01/02 09:08:23;;;;;;;3.75;3.08;;;10.50;99.90;;;;;;5094391;28;20201;-84
2022/01/02 09:10:51;;;;;;;3.75;2.85;;;10.60;99.90;;;;;;5096294;28;20223;-81
2022/01/02 09:13:18;;;;;;;3.53;3.23;;;10.80;99.90;;;;;;5085292;28;20222;-81
2022/01/02 09:15:45;;;;;;;3.50;3.20;;;10.90;99.90;;;;;;5082784;28;20537;-82
2022/01/02 09:18:11;;;;;;;4.53;4.10;;;11.10;99.90;;;;;;5082736;28;20211;-81
2022/01/02 09:20:38;;;;;;;3.90;3.50;;;11.30;99.90;;;;;;5079498;28;20457;-80
2022/01/02 09:23:05;;;;;;;3.30;3.10;;;11.50;99.90;;;;;;5080444;28;20856;-82
2022/01/02 09:25:32;;;;;;;3.50;3.20;;;11.70;99.90;;;;;;5081983;28;20801;-81
2022/01/02 09:28:00;;;;;;;3.27;2.97;;;11.80;99.90;;;;;;5080917;28;20458;-81
2022/01/02 09:30:27;;;;;;;3.40;3.10;;;11.80;99.80;;;;;;5080864;28;20453;-81
2022/01/02 09:32:55;;;;;;;3.93;3.17;;;11.90;99.60;;;;;;5081162;28;20483;-81
2022/01/02 09:35:22;;;;;;;3.70;3.10;;;11.90;99.40;;;;;;5081279;28;20500;-81
2022/01/02 09:37:48;;;;;;;4.13;3.83;;;11.90;98.60;;;;;;5081580;28;20456;-81
2022/01/02 09:40:15;;;;;;;4.37;4.00;;;12.00;99.10;;;;;;5092109;28;20461;-81
2022/01/02 09:42:42;;;;;;;4.00;3.70;;;12.00;99.40;;;;;;5070106;28;20958;-82
2022/01/02 09:45:11;;;;;;;4.50;3.87;;;12.00;99.50;;;;;;5071480;28;20524;-82
2022/01/02 09:47:38;;;;;;;4.30;3.83;;;12.10;99.60;;;;;;5072887;28;20478;-80
2022/01/02 09:50:06;;;;;;;5.03;4.63;;;12.10;99.80;;;;;;5069722;28;20442;-81
2022/01/02 09:52:33;;;;;;;4.33;4.03;;;12.20;99.90;;;;;;5069960;28;20945;-81
2022/01/02 09:55:00;;;;;;;4.50;4.20;;;12.10;99.90;;;;;;5067977;28;20499;-81
2022/01/02 09:57:27;;;;;;;4.70;4.20;;;12.10;99.90;;;;;;5068933;28;20442;-81
2022/01/02 09:59:55;;;;;;;5.33;4.83;;;12.20;99.90;;;;;;5069968;28;20446;-80
2022/01/02 10:02:24;;;;;;;4.30;3.90;;;12.10;99.90;;;;;;5080397;28;20470;-81
2022/01/02 10:05:02;;;;;;;2.90;2.70;;;12.10;99.90;;;;;;5079362;28;20458;-82
2022/01/02 10:07:31;;;;;;;4.10;3.70;;;12.00;99.90;;;;;;5076463;28;20527;-81
2022/01/02 10:09:58;;;;;;;3.60;3.40;;;12.10;99.90;;;;;;5077985;28;20547;-83
2022/01/02 10:12:27;;;;;;;5.27;4.10;;;12.10;99.90;;;;;;5100014;28;20469;-83
2022/01/02 10:15:14;;;;;;;4.03;3.63;;;12.20;99.90;;;;;;5087509;28;20451;-83
2022/01/02 10:18:10;;;;;;;3.30;3.03;;;12.30;99.70;;;;;;5077777;28;20424;-83
2022/01/02 10:20:40;;;;;;;3.23;2.93;;;12.50;99.50;;;;;;5076299;28;20442;-82
2022/01/02 10:23:11;;;;;;;3.90;3.60;;;12.60;98.90;;;;;;5076650;28;20474;-82
2022/01/02 10:25:47;;;;;;;4.50;4.10;;;12.70;99.30;;;;;;5077759;28;20447;-81
2022/01/02 10:28:22;;;;;;;6.70;5.23;;;12.80;99.00;;;;;;5080099;28;20445;-82
2022/01/02 10:30:50;;;;;;;5.70;5.20;;;12.70;99.30;;;;;;5091566;28;20452;-81
2022/01/02 10:33:19;;;;;;;7.63;5.80;;;12.50;99.70;;;;;;5098208;28;20842;-80
2022/01/02 10:35:46;;;;;;;5.57;5.07;;;12.40;99.90;;;;;;5085598;28;20447;-80
2022/01/02 10:38:17;;;;;;;5.67;5.03;;;12.20;99.90;;;;;;5093379;28;20447;-80
2022/01/02 10:40:45;;;;;;;5.90;5.40;;;12.00;99.90;;;;;;5093395;28;20482;-81
2022/01/02 10:43:23;;;;;;;6.00;5.50;;;11.80;99.90;;;;;;5102547;28;20461;-80
2022/01/02 10:45:51;;;;;;;8.63;6.50;;;11.60;99.90;;;;;;5096051;28;20445;-81
2022/01/02 10:48:32;;;;;;;6.40;5.90;;;11.50;99.90;;;;;;5098651;28;20465;-82
2022/01/02 10:51:01;;;;;;;6.30;5.50;;;11.40;99.90;;;;;;5103573;28;20913;-81
2022/01/02 10:53:29;;;;;;;6.90;6.20;;;11.40;99.90;;;;;;5105303;28;20460;-81
2022/01/02 10:55:56;;;;;;;7.53;6.83;;;11.30;99.90;;;;;;5098264;28;20452;-82
2022/01/02 10:58:25;;;;;;;8.02;7.22;;;11.10;99.90;;;;;;5094508;28;20452;-82
2022/01/02 11:00:53;;;;;;;8.60;7.65;;;10.90;99.90;;;;;;5098805;28;20205;-81
2022/01/02 11:03:24;;;;;;;7.90;7.20;;;10.80;99.90;;;;;;5105353;28;20231;-81
2022/01/02 11:05:57;;;;;;;8.23;6.40;;;10.80;99.90;;;;;;5105087;28;20432;-79
2022/01/02 11:08:30;;;;;;;7.50;6.78;;;10.70;99.90;;;;;;5085435;28;20273;-80
2022/01/02 11:10:57;;;;;;;7.22;6.53;;;10.60;99.90;;;;;;5076123;28;20557;-81
2022/01/02 11:13:24;;;;;;;7.07;6.47;;;10.50;99.90;;;;;;5075408;28;20282;-81
2022/01/02 11:15:51;;;;;;;7.33;6.27;;;10.50;99.90;;;;;;5078528;28;20577;-80
2022/01/02 11:18:19;;;;;;;7.18;6.50;;;10.50;99.90;;;;;;5079290;28;20796;-80
2022/01/02 11:20:47;;;;;;;6.50;6.00;;;10.50;99.90;;;;;;5078443;28;20213;-81
2022/01/02 11:23:22;;;;;;;8.82;8.02;;;10.60;99.90;;;;;;5079939;28;20234;-81
2022/01/02 11:25:55;;;;;;;6.05;5.45;;;10.60;99.90;;;;;;5080122;28;20214;-81
2022/01/02 11:28:34;;;;;;;4.60;4.00;;;10.80;99.90;;;;;;5079022;28;20203;-81
2022/01/02 11:31:02;;;;;;;3.80;3.40;;;10.90;99.90;;;;;;5080373;28;20799;-81
2022/01/02 11:33:31;;;;;;;3.20;2.90;;;11.10;99.90;;;;;;5082437;28;20555;-81
2022/01/02 11:36:01;;;;;;;2.30;2.13;;;11.20;99.90;;;;;;5084990;28;20450;-81
2022/01/02 11:38:42;;;;;;;2.20;1.70;;;11.40;99.90;;;;;;5077047;28;20457;-81
2022/01/02 11:41:09;;;;;;;2.20;1.97;;;11.60;99.20;;;;;;5080071;28;20458;-81
2022/01/02 11:43:53;;;;;;;2.17;1.97;;;11.80;98.20;;;;;;5084509;28;20971;-81
2022/01/02 11:46:22;;;;;;;2.97;1.87;;;11.90;97.60;;;;;;5083313;28;20455;-81
2022/01/02 11:52:23;;;;;;;2.10;1.90;;;12.30;96.70;;;;;;5086225;28;20445;-81
2022/01/02 11:54:56;;;;;;;1.40;1.30;;;12.40;96.50;;;;;;5091180;28;20454;-84
2022/01/02 11:57:54;;;;;;;1.50;1.40;;;12.50;96.00;;;;;;5081703;28;20545;-82
2022/01/02 12:04:48;;;;;;;1.63;1.33;;;12.40;95.80;;;;;;5085341;28;20201;-83
2022/01/02 12:21:14;;;;;;;1.40;1.30;;;13.20;93.80;;;;;;5044176;28;20447;-81
2022/01/02 12:23:53;;;;;;;1.47;1.40;;;13.90;92.60;;;;;;5047556;28;20453;-82
2022/01/02 12:26:39;;;;;;;1.93;1.83;;;14.20;91.60;;;;;;5115259;22;20629;-83
2022/01/02 12:29:14;;;;;;;2.17;2.07;;;14.20;91.00;;;;;;5093466;28;20911;-85
2022/01/02 12:31:42;;;;;;;1.80;1.20;;;14.50;90.80;;;;;;5109422;28;20858;-85
2022/01/02 12:34:11;;;;;;;1.70;1.10;;;14.80;90.20;;;;;;5117079;28;20456;-83
2022/01/02 12:36:52;;;;;;;1.70;1.60;;;14.70;89.60;;;;;;5103759;28;20469;-83
2022/01/02 12:39:27;;;;;;;10.93;1.90;;;14.90;88.90;;;;;;5075635;28;20456;-85
2022/01/02 12:41:54;;;;;;;1.40;1.30;;;15.40;89.40;;;;;;5105291;28;20489;-85
2022/01/02 12:44:34;;;;;;;1.47;1.37;;;16.10;87.60;;;;;;5112771;28;20533;-85
2022/01/02 12:47:06;;;;;;;1.10;1.10;;;16.70;85.90;;;;;;5112112;28;20472;-85
2022/01/02 12:49:36;;;;;;;1.60;1.50;;;17.30;83.30;;;;;;5112336;28;20473;-85
2022/01/02 12:52:10;;;;;;;1.57;1.47;;;17.50;81.00;;;;;;5112262;28;20478;-85
2022/01/02 12:54:43;;;;;;;1.70;1.53;;;17.60;79.40;;;;;;5112505;28;20537;-85
2022/01/02 12:57:11;;;;;;;2.20;1.27;;;17.50;79.70;;;;;;5112301;28;20491;-85
2022/01/02 12:59:41;;;;;;;2.07;1.97;;;17.50;79.70;;;;;;5112217;28;20477;-84
2022/01/02 13:02:10;;;;;;;2.50;1.50;;;17.60;80.10;;;;;;5112154;28;20450;-84
2022/01/02 13:04:40;;;;;;;1.87;1.63;;;17.30;78.90;;;;;;5112556;28;20466;-84
2022/01/02 13:07:13;;;;;;;1.60;1.40;;;17.00;80.10;;;;;;5112502;28;20477;-85
2022/01/02 13:09:43;;;;;;;1.70;1.30;;;16.80;80.80;;;;;;5112278;28;20454;-85
2022/01/02 13:12:14;;;;;;;2.53;2.00;;;16.50;79.40;;;;;;5111775;28;20864;-85
2022/01/02 13:14:44;;;;;;;1.60;1.50;;;16.60;80.60;;;;;;5113191;28;20454;-85
2022/01/02 13:17:15;;;;;;;2.50;1.60;;;16.60;79.70;;;;;;5113176;28;20477;-84
2022/01/02 13:19:49;;;;;;;2.17;1.83;;;16.60;80.10;;;;;;5112996;28;20446;-82
2022/01/02 13:22:20;;;;;;;1.60;1.50;;;16.80;80.00;;;;;;5112598;28;20446;-83
2022/01/02 13:24:47;;;;;;;1.40;1.27;;;17.00;78.20;;;;;;5112606;28;20812;-84
2022/01/02 13:27:15;;;;;;;2.20;1.10;;;17.10;77.60;;;;;;5114294;28;20481;-83
2022/01/02 13:29:53;;;;;;;1.40;1.30;;;16.60;76.80;;;;;;5109211;28;20460;-83
2022/01/02 13:32:20;;;;;;;1.90;1.80;;;16.70;77.50;;;;;;5092176;28;20447;-84
2022/01/02 13:35:02;;;;;;;2.07;1.77;;;16.50;78.00;;;;;;5103447;28;20452;-85
2022/01/02 13:37:39;;;;;;;1.53;1.30;;;16.60;78.20;;;;;;5115004;28;21110;-86
2022/01/02 13:40:09;;;;;;;1.40;1.30;;;16.60;77.70;;;;;;5111872;28;20456;-85
2022/01/02 13:42:38;;;;;;;2.17;1.80;;;16.50;78.20;;;;;;5098607;28;20470;-86
2022/01/02 13:45:14;;;;;;;2.03;1.60;;;16.50;78.70;;;;;;5098244;28;20500;-86
2022/01/02 13:47:42;;;;;;;1.37;1.27;;;16.50;78.40;;;;;;5098077;28;20867;-86